createdAt,value
2022-10-06T03:53:02.735Z,100.00
2022-10-06T03:56:08.794Z,100.00
2022-10-06T03:59:13.295Z,100.00
2022-10-06T04:02:16.444Z,100.00
2022-10-06T04:05:19.026Z,100.00
2022-10-06T04:08:21.130Z,100.00
2022-10-06T04:11:28.734Z,100.00
2022-10-06T04:14:30.905Z,100.00
2022-10-06T04:17:33.509Z,100.00
2022-10-06T04:20:36.103Z,100.00
2022-10-06T04:23:38.889Z,100.00
2022-10-06T04:26:45.372Z,100.00
2022-10-06T04:29:47.911Z,100.00
2022-10-06T04:32:49.992Z,100.00
2022-10-06T04:36:00.889Z,100.00
2022-10-06T04:39:04.754Z,100.00
2022-10-06T04:42:07.663Z,100.00
2022-10-06T04:45:10.437Z,100.00
2022-10-06T04:48:13.966Z,100.00
2022-10-06T04:51:17.131Z,100.00
2022-10-06T04:54:19.856Z,100.00
2022-10-06T04:57:33.618Z,100.00
2022-10-06T05:00:36.104Z,100.00
2022-10-06T05:03:39.296Z,100.00
2022-10-06T05:06:42.722Z,100.00
2022-10-06T05:09:45.690Z,100.00
2022-10-06T05:12:48.027Z,100.00
2022-10-06T05:15:58.254Z,100.00
2022-10-06T05:19:02.140Z,100.00
2022-10-06T05:22:04.743Z,100.00
2022-10-06T05:25:07.671Z,100.00
2022-10-06T05:28:09.791Z,100.00
2022-10-06T05:31:20.084Z,100.00
2022-10-06T05:34:22.497Z,100.00
2022-10-06T05:37:26.268Z,100.00
2022-10-06T05:40:28.425Z,100.00
2022-10-06T05:43:31.758Z,100.00
2022-10-06T05:46:34.530Z,100.00
2022-10-06T05:49:36.962Z,100.00
2022-10-06T05:52:39.186Z,100.00
2022-10-06T05:55:41.882Z,100.00
2022-10-06T05:58:49.314Z,100.00
2022-10-06T06:01:52.199Z,100.00
2022-10-06T06:04:55.522Z,100.00
2022-10-06T06:07:57.693Z,100.00
2022-10-06T06:11:07.648Z,100.00
2022-10-06T06:14:12.453Z,100.00
2022-10-06T06:17:15.226Z,100.00
2022-10-06T06:20:17.354Z,100.00
2022-10-06T06:23:19.810Z,100.00
2022-10-06T06:26:24.973Z,100.00
2022-10-06T06:29:27.877Z,100.00
2022-10-06T06:32:31.727Z,100.00
2022-10-06T06:35:34.842Z,100.00
2022-10-06T06:38:37.004Z,100.00
2022-10-06T06:41:41.720Z,100.00
2022-10-06T06:44:44.497Z,100.00
2022-10-06T06:47:48.211Z,100.00
2022-10-06T06:50:58.292Z,100.00
2022-10-06T06:54:03.104Z,100.00
2022-10-06T06:57:07.208Z,100.00
2022-10-06T07:00:10.339Z,100.00
2022-10-06T07:03:16.739Z,100.00
2022-10-06T07:06:28.189Z,100.00
2022-10-06T07:09:31.022Z,100.00
2022-10-06T07:12:34.039Z,100.00
2022-10-06T07:15:54.838Z,100.00
2022-10-06T07:19:16.051Z,100.00
2022-10-06T07:22:40.760Z,100.00
2022-10-06T07:25:43.433Z,100.00
2022-10-06T07:28:46.195Z,100.00
2022-10-06T07:31:50.028Z,100.00
2022-10-06T07:34:52.849Z,99.59
2022-10-06T07:37:55.734Z,100.00
2022-10-06T07:41:18.395Z,95.46
2022-10-06T07:44:22.022Z,92.35
2022-10-06T07:47:24.406Z,92.97
2022-10-06T07:50:26.979Z,94.90
2022-10-06T07:53:29.283Z,95.24
2022-10-06T07:56:31.913Z,92.78
2022-10-06T07:59:35.096Z,90.75
2022-10-06T08:02:39.112Z,92.45
2022-10-06T08:05:41.431Z,93.52
2022-10-06T08:08:47.091Z,94.44
2022-10-06T08:11:52.939Z,93.84
2022-10-06T08:14:55.321Z,92.43
2022-10-06T08:18:02.182Z,91.26
2022-10-06T08:21:15.425Z,88.11
2022-10-06T08:24:17.812Z,86.50
2022-10-06T08:27:19.864Z,86.41
2022-10-06T08:30:26.984Z,86.59
2022-10-06T08:33:29.030Z,86.15
2022-10-06T08:36:32.741Z,80.75
2022-10-06T08:39:34.948Z,80.67
2022-10-06T08:42:42.438Z,81.20
2022-10-06T08:45:46.759Z,82.01
2022-10-06T08:48:49.306Z,82.66
2022-10-06T08:52:03.234Z,82.54
2022-10-06T08:55:14.520Z,81.97
2022-10-06T08:58:36.323Z,77.81
2022-10-06T09:01:45.548Z,78.27
2022-10-06T09:04:49.597Z,78.37
2022-10-06T09:08:25.477Z,78.85
2022-10-06T09:12:03.305Z,78.84
2022-10-06T09:15:14.774Z,79.80
2022-10-06T09:18:49.457Z,77.82
2022-10-06T09:22:05.610Z,76.67
2022-10-06T09:25:28.449Z,74.16
2022-10-06T09:28:34.700Z,72.65
2022-10-06T09:31:40.217Z,73.57
2022-10-06T09:34:56.331Z,73.65
2022-10-06T09:38:08.368Z,72.71
2022-10-06T09:41:13.391Z,72.23
2022-10-06T09:44:24.922Z,70.90
2022-10-06T09:47:35.196Z,71.54
2022-10-06T09:50:37.308Z,71.17
2022-10-06T09:53:43.827Z,71.25
2022-10-06T09:56:47.257Z,69.23
2022-10-06T09:59:49.614Z,69.55
2022-10-06T10:03:04.253Z,70.17
2022-10-06T10:06:06.653Z,70.13
2022-10-06T10:09:23.941Z,71.37
2022-10-06T10:12:30.807Z,70.81
2022-10-06T10:15:53.467Z,70.54
2022-10-06T10:18:55.895Z,70.46
2022-10-06T10:21:59.837Z,69.85
2022-10-06T10:25:07.938Z,68.19
2022-10-06T10:28:28.723Z,67.96
2022-10-06T10:32:08.308Z,68.66
2022-10-06T10:35:56.859Z,68.36
2022-10-06T10:39:01.313Z,69.72
2022-10-06T10:42:13.828Z,68.41
2022-10-06T10:45:32.222Z,67.78
2022-10-06T10:48:42.657Z,68.25
2022-10-06T10:51:53.453Z,69.26
2022-10-06T10:55:26.702Z,69.75
2022-10-06T10:58:34.893Z,70.26
2022-10-06T11:01:53.490Z,70.35
2022-10-06T11:05:28.932Z,71.21
2022-10-06T11:08:56.309Z,70.67
2022-10-06T11:12:11.733Z,71.24
2022-10-06T11:15:37.084Z,71.67
2022-10-06T11:19:14.757Z,70.65
2022-10-06T11:22:43.911Z,70.23
2022-10-06T11:26:05.303Z,70.34
2022-10-06T11:29:27.062Z,70.67
2022-10-06T11:32:54.515Z,70.52
2022-10-06T11:35:56.618Z,70.26
2022-10-06T11:39:11.082Z,70.30
2022-10-06T11:42:49.023Z,70.20
2022-10-06T11:46:02.226Z,70.25
2022-10-06T11:49:28.721Z,69.17
2022-10-06T11:52:30.926Z,68.22
2022-10-06T11:55:32.975Z,67.10
2022-10-06T11:58:56.926Z,65.48
2022-10-06T12:02:01.313Z,65.23
2022-10-06T12:05:28.473Z,65.37
2022-10-06T12:08:39.086Z,64.83
2022-10-06T12:11:43.002Z,65.17
2022-10-06T12:16:55.317Z,64.83
2022-10-06T12:18:37.660Z,62.60
2022-10-06T12:21:49.041Z,63.83
2022-10-06T12:25:00.888Z,65.94
2022-10-06T12:28:12.124Z,65.03
2022-10-06T12:31:41.348Z,64.90
2022-10-06T12:34:45.499Z,64.81
2022-10-06T12:37:54.894Z,64.62
2022-10-06T12:40:57.618Z,63.30
2022-10-06T12:44:00.689Z,65.34
2022-10-06T12:47:11.272Z,63.85
2022-10-06T12:50:25.887Z,66.24
2022-10-06T12:53:32.757Z,65.64
2022-10-06T12:56:40.897Z,66.25
2022-10-06T12:59:43.052Z,66.72
2022-10-06T13:02:45.798Z,65.57
2022-10-06T13:05:51.900Z,64.58
2022-10-06T13:09:13.824Z,65.14
2022-10-06T13:12:30.962Z,64.13
2022-10-06T13:15:35.525Z,64.50
2022-10-06T13:18:37.590Z,64.70
2022-10-06T13:21:39.932Z,64.96
2022-10-06T13:24:42.012Z,64.29
2022-10-06T13:27:51.861Z,64.80
2022-10-06T13:34:18.727Z,65.53
2022-10-06T13:37:20.863Z,65.81
2022-10-06T13:40:45.654Z,66.59
2022-10-06T13:43:54.815Z,66.55
2022-10-06T13:47:29.669Z,67.45
2022-10-06T13:50:31.916Z,67.08
2022-10-06T13:53:34.512Z,68.29
2022-10-06T13:56:40.331Z,67.38
2022-10-06T13:59:42.688Z,68.08
2022-10-06T14:02:48.184Z,68.67
2022-10-06T14:06:03.760Z,69.19
2022-10-06T14:09:12.090Z,67.40
2022-10-06T14:12:20.425Z,66.57
2022-10-06T14:15:28.547Z,67.18
2022-10-06T14:18:39.894Z,67.64
2022-10-06T14:21:44.780Z,67.62
2022-10-06T14:24:53.753Z,68.98
2022-10-06T14:27:55.921Z,69.30
2022-10-06T14:30:58.776Z,69.61
2022-10-06T14:34:02.421Z,70.24
2022-10-06T14:37:04.693Z,70.83
2022-10-06T14:40:11.829Z,71.24
2022-10-06T14:43:14.532Z,72.25
2022-10-06T14:46:16.760Z,72.84
2022-10-06T14:49:19.709Z,73.36
2022-10-06T14:52:22.199Z,73.33
2022-10-06T14:55:29.692Z,73.69
2022-10-06T14:58:32.982Z,74.78
2022-10-06T15:01:37.719Z,74.92
2022-10-06T15:04:39.752Z,75.83
2022-10-06T15:08:00.873Z,76.37
2022-10-06T15:11:02.898Z,76.67
2022-10-06T15:14:08.453Z,76.93
2022-10-06T15:17:10.507Z,77.59
